Hardaway, Alabama
Current Conditions -  °F | °C
As of 3:53 PM on Tuesday 21 Oct 2014 (Local Time) from KTOI Reporting Station
Clear Clear  
Wind Chill: 27°   Ceiling: Unl
Heat Index: 27°   Visibility: 10mi
Dew Point: 12°   Wind: 8mph
Humidity: 39%   Direction: 320°NW
Pressure: 29.97"   Gusts: 17mph
Location:  32.29°N, 85.85°W
Report Text: KTOI 212053Z AUTO 32007G15KT 260V340 10SM CLR 27/12 A2997 RMK AO2 SLP145 T02670117 56017
Loading
Personal Weather Stations






























Interactive Weather Map
Tropical Storm Tracking
New forecast layout! Learn more

10-Day Weather Forecast

Advertisements
Track Severe Weather on mobile